createdAt,value
2018-12-06T03:31:25.669Z,19.87
2018-12-06T03:33:54.040Z,20.97
2018-12-06T03:36:22.242Z,18.43
2018-12-06T03:38:50.407Z,19.40
2018-12-06T03:41:18.606Z,18.57
2018-12-06T03:43:46.861Z,19.03
2018-12-06T03:46:15.075Z,16.17
2018-12-06T03:48:43.144Z,14.80
2018-12-06T03:51:11.236Z,21.37
2018-12-06T03:53:39.433Z,16.60
2018-12-06T03:56:07.538Z,19.03
2018-12-06T03:58:35.649Z,19.70
2018-12-06T04:01:03.794Z,19.53
2018-12-06T04:03:31.909Z,17.50
2018-12-06T04:06:00.073Z,16.87
2018-12-06T04:08:28.277Z,16.10
2018-12-06T04:10:56.416Z,16.43
2018-12-06T04:13:24.626Z,19.03
2018-12-06T04:15:52.755Z,17.70
2018-12-06T04:18:20.918Z,18.07
2018-12-06T04:20:49.206Z,15.97
2018-12-06T04:23:17.288Z,18.20
2018-12-06T04:25:45.428Z,18.03
2018-12-06T04:28:13.569Z,18.10
2018-12-06T04:30:41.900Z,15.80
2018-12-06T04:33:09.996Z,15.90
2018-12-06T04:35:38.094Z,16.07
2018-12-06T04:38:06.165Z,15.27
2018-12-06T04:40:34.311Z,15.47
2018-12-06T04:43:02.496Z,14.90
2018-12-06T04:45:30.669Z,12.77
2018-12-06T04:47:58.810Z,14.47
2018-12-06T04:50:26.992Z,17.13
2018-12-06T04:52:55.074Z,15.37
2018-12-06T04:55:23.228Z,14.13
2018-12-06T04:57:58.117Z,13.40
2018-12-06T05:00:39.323Z,16.93
2018-12-06T05:03:17.377Z,14.70
2018-12-06T05:05:45.521Z,13.90
2018-12-06T05:08:20.480Z,14.90
2018-12-06T05:10:54.689Z,15.70
2018-12-06T05:13:36.054Z,15.50
2018-12-06T05:16:05.965Z,10.90
2018-12-06T05:18:46.580Z,15.60
2018-12-06T05:21:25.006Z,13.47
2018-12-06T05:24:11.761Z,12.57
2018-12-06T05:26:46.715Z,11.60
2018-12-06T05:29:18.007Z,16.20
2018-12-06T05:31:49.843Z,10.43
2018-12-06T05:34:30.725Z,12.03
2018-12-06T05:40:00.328Z,11.47
2018-12-06T05:42:38.236Z,11.57
2018-12-06T05:45:08.002Z,9.37
2018-12-06T05:47:42.293Z,13.33
2018-12-06T05:50:16.045Z,11.17
2018-12-06T05:52:57.557Z,16.03
2018-12-06T05:55:31.210Z,8.07
2018-12-06T05:58:02.565Z,12.70
2018-12-06T06:00:34.081Z,12.53
2018-12-06T06:03:09.398Z,15.73
2018-12-06T06:05:41.958Z,13.07
2018-12-06T06:08:15.983Z,9.03
2018-12-06T06:10:50.252Z,13.20
2018-12-06T06:13:19.952Z,10.83
2018-12-06T06:15:53.491Z,8.87
2018-12-06T06:18:33.888Z,9.70
2018-12-06T06:25:17.090Z,16.40
2018-12-06T06:27:55.541Z,10.90
2018-12-06T06:30:27.038Z,15.83
2018-12-06T06:32:56.228Z,12.70
2018-12-06T06:35:28.181Z,11.80
2018-12-06T06:38:02.547Z,14.40
2018-12-06T06:40:36.488Z,14.20
2018-12-06T06:43:04.700Z,15.00
2018-12-06T06:45:33.190Z,14.50
2018-12-06T06:51:22.559Z,15.30
2018-12-06T06:54:05.591Z,17.80
2018-12-06T06:56:46.857Z,14.77
2018-12-06T07:02:15.076Z,15.77
2018-12-06T07:04:47.124Z,18.23
2018-12-06T07:07:15.361Z,19.30
2018-12-06T07:09:43.441Z,16.83
2018-12-06T07:12:11.616Z,16.30
2018-12-06T07:14:39.721Z,21.30
2018-12-06T07:17:07.870Z,14.60
2018-12-06T07:19:36.024Z,17.13
2018-12-06T07:22:04.230Z,17.97
2018-12-06T07:24:32.365Z,15.53
2018-12-06T07:27:00.600Z,14.73
2018-12-06T07:29:28.682Z,15.20
2018-12-06T07:31:56.836Z,17.17
2018-12-06T07:34:25.022Z,14.17
2018-12-06T07:36:53.220Z,17.83
2018-12-06T07:39:21.360Z,15.63
2018-12-06T07:41:49.601Z,14.30
2018-12-06T07:44:17.692Z,16.13
2018-12-06T07:46:54.680Z,14.13
2018-12-06T07:49:41.484Z,13.70
2018-12-06T07:52:13.430Z,12.83
2018-12-06T07:54:51.412Z,12.67
2018-12-06T07:57:22.565Z,11.80
2018-12-06T07:59:57.441Z,11.07
2018-12-06T08:02:32.561Z,11.73
2018-12-06T08:05:06.753Z,12.93
2018-12-06T08:07:38.258Z,13.30
2018-12-06T08:10:13.445Z,12.00
2018-12-06T08:12:47.444Z,9.97
2018-12-06T08:15:18.861Z,11.07
2018-12-06T08:17:50.857Z,9.37
2018-12-06T08:20:28.746Z,12.80
2018-12-06T08:23:03.381Z,10.27
2018-12-06T08:25:38.144Z,8.97
2018-12-06T08:28:09.582Z,14.33
2018-12-06T08:30:44.005Z,9.37
2018-12-06T08:39:12.576Z,9.17
2018-12-06T08:42:03.828Z,7.93
2018-12-06T08:44:54.362Z,8.13
2018-12-06T08:47:38.767Z,7.53
2018-12-06T08:56:10.561Z,7.50
2018-12-06T08:58:42.112Z,6.40
2018-12-06T09:01:28.975Z,7.63
2018-12-06T09:07:01.144Z,9.57
2018-12-06T09:09:39.625Z,7.37
2018-12-06T09:12:13.429Z,10.07
2018-12-06T09:14:46.746Z,9.67
2018-12-06T09:17:14.929Z,10.37
2018-12-06T09:19:43.024Z,11.90
2018-12-06T09:22:11.177Z,9.37
2018-12-06T09:24:39.328Z,10.23
2018-12-06T09:27:07.585Z,12.37
2018-12-06T09:29:35.804Z,13.03
2018-12-06T09:32:04.052Z,13.60
2018-12-06T09:34:32.177Z,10.00
2018-12-06T09:37:00.332Z,11.10
2018-12-06T09:39:28.489Z,9.47
2018-12-06T09:41:56.632Z,10.97
2018-12-06T09:44:24.918Z,8.73
2018-12-06T09:46:53.096Z,9.27
2018-12-06T09:49:21.250Z,11.73
2018-12-06T09:51:49.402Z,12.57
2018-12-06T09:54:17.465Z,10.50
2018-12-06T09:56:45.633Z,11.97
2018-12-06T09:59:13.773Z,12.97
2018-12-06T10:01:42.157Z,8.90
2018-12-06T10:04:10.292Z,7.87
2018-12-06T10:06:38.380Z,6.77
2018-12-06T10:09:07.116Z,6.40
2018-12-06T10:11:35.332Z,7.57
2018-12-06T10:14:03.548Z,8.80
2018-12-06T10:16:43.713Z,7.17
2018-12-06T10:19:11.798Z,6.70
2018-12-06T10:21:39.952Z,8.33
2018-12-06T10:24:08.177Z,5.57
2018-12-06T10:26:36.325Z,6.70
2018-12-06T10:29:04.533Z,6.07
2018-12-06T10:31:32.753Z,9.27
2018-12-06T10:34:00.832Z,8.70
2018-12-06T10:36:32.184Z,6.90
2018-12-06T10:39:00.331Z,5.50
2018-12-06T10:44:29.816Z,4.43
2018-12-06T10:47:03.922Z,4.90
2018-12-06T10:49:31.968Z,4.93
2018-12-06T10:52:06.457Z,4.87
2018-12-06T10:54:46.640Z,5.90
2018-12-06T11:00:19.551Z,5.47
2018-12-06T11:02:48.678Z,5.50
2018-12-06T11:05:17.473Z,5.00
2018-12-06T11:07:45.692Z,5.97
2018-12-06T11:10:13.891Z,6.07
2018-12-06T11:12:41.961Z,4.40
2018-12-06T11:15:10.189Z,6.00
2018-12-06T11:17:38.352Z,5.33
2018-12-06T11:23:05.358Z,5.63
2018-12-06T11:28:32.881Z,5.73
2018-12-06T11:31:01.009Z,7.90
2018-12-06T11:33:29.165Z,8.73
2018-12-06T11:35:57.324Z,5.97
2018-12-06T11:38:25.396Z,6.33
2018-12-06T11:41:06.026Z,5.97
2018-12-06T11:43:34.158Z,7.03
2018-12-06T11:46:02.428Z,7.60
2018-12-06T11:48:30.646Z,7.10
2018-12-06T11:50:58.709Z,7.53
2018-12-06T11:53:27.417Z,6.83
2018-12-06T11:55:55.620Z,7.77
2018-12-06T11:58:23.803Z,9.57
2018-12-06T12:00:51.954Z,11.53
2018-12-06T12:03:20.100Z,12.33
2018-12-06T12:05:48.191Z,13.93
2018-12-06T12:08:16.347Z,10.17
2018-12-06T12:10:44.647Z,9.90
2018-12-06T12:13:12.741Z,8.70
2018-12-06T12:15:40.881Z,9.13
2018-12-06T12:18:08.985Z,12.27
2018-12-06T12:20:37.197Z,11.40
2018-12-06T12:29:08.304Z,10.70
2018-12-06T12:34:36.336Z,15.27
2018-12-06T12:37:04.565Z,12.73
2018-12-06T12:39:32.717Z,10.73
2018-12-06T12:42:08.979Z,15.23
2018-12-06T12:44:37.194Z,14.70
2018-12-06T12:47:09.057Z,20.13
2018-12-06T12:49:37.240Z,15.47
2018-12-06T12:55:05.860Z,15.77
2018-12-06T13:03:47.592Z,20.53
2018-12-06T13:06:28.053Z,25.00
2018-12-06T13:09:00.010Z,22.30
2018-12-06T13:14:32.796Z,23.50
2018-12-06T13:20:00.646Z,28.03
2018-12-06T13:22:28.853Z,23.67
2018-12-06T13:24:57.000Z,23.87
2018-12-06T13:27:25.164Z,23.37
2018-12-06T13:29:53.245Z,24.03
2018-12-06T13:32:21.342Z,27.00
2018-12-06T13:34:49.566Z,21.80
2018-12-06T13:37:17.768Z,24.67
2018-12-06T13:39:45.968Z,25.50
2018-12-06T13:42:14.142Z,23.13
2018-12-06T13:44:42.361Z,20.00
2018-12-06T13:47:10.584Z,22.20
2018-12-06T13:49:38.776Z,21.30
2018-12-06T13:52:06.953Z,24.27
2018-12-06T13:54:35.108Z,23.37
2018-12-06T13:57:03.257Z,23.40
2018-12-06T13:59:31.460Z,26.10
2018-12-06T14:02:02.253Z,26.00
2018-12-06T14:04:30.486Z,26.90
2018-12-06T14:06:58.611Z,26.90
2018-12-06T14:09:26.737Z,22.57
2018-12-06T14:11:55.912Z,23.80
2018-12-06T14:14:24.044Z,29.17
2018-12-06T14:16:52.128Z,21.40
2018-12-06T14:19:20.194Z,28.03
2018-12-06T14:21:48.344Z,34.13
2018-12-06T14:24:16.443Z,25.83
2018-12-06T14:26:44.519Z,28.57
2018-12-06T14:29:12.591Z,25.60
2018-12-06T14:31:40.698Z,26.13
2018-12-06T14:34:08.770Z,21.87
2018-12-06T14:36:36.916Z,20.53
2018-12-06T14:39:08.031Z,24.63
2018-12-06T14:41:36.188Z,25.90
2018-12-06T14:44:04.442Z,25.80
2018-12-06T14:46:32.585Z,28.70
2018-12-06T14:49:00.686Z,28.73
2018-12-06T14:51:28.809Z,33.60
2018-12-06T14:53:57.124Z,25.83
2018-12-06T14:56:25.274Z,26.63
2018-12-06T14:58:53.344Z,27.00
2018-12-06T15:01:21.568Z,25.17
2018-12-06T15:03:49.624Z,25.90
2018-12-06T15:06:17.892Z,20.20
2018-12-06T15:08:46.072Z,24.57
2018-12-06T15:11:14.288Z,18.93
2018-12-06T15:13:42.465Z,19.70
2018-12-06T15:16:10.668Z,20.97
2018-12-06T15:18:38.895Z,16.10
2018-12-06T15:21:07.115Z,12.70
2018-12-06T15:23:35.276Z,26.33
2018-12-06T15:26:03.470Z,16.93
2018-12-06T15:28:31.596Z,15.00
2018-12-06T15:30:59.820Z,11.27
2018-12-06T15:33:27.938Z,13.10
2018-12-06T15:35:56.187Z,10.73
2018-12-06T15:38:24.259Z,12.80
2018-12-06T15:40:52.405Z,20.07
2018-12-06T15:43:20.518Z,10.93
2018-12-06T15:45:48.712Z,10.97
2018-12-06T15:48:16.794Z,14.63
2018-12-06T15:50:45.007Z,11.07
2018-12-06T15:53:13.161Z,16.30
2018-12-06T15:55:41.360Z,12.13
2018-12-06T15:58:09.502Z,11.80
2018-12-06T16:00:37.687Z,12.43
2018-12-06T16:03:05.800Z,8.80
2018-12-06T16:05:33.932Z,11.53
2018-12-06T16:11:05.692Z,13.33
2018-12-06T16:13:33.930Z,13.23
2018-12-06T16:19:01.585Z,15.90
2018-12-06T16:21:29.724Z,8.90
2018-12-06T16:23:57.824Z,13.07
2018-12-06T16:26:26.023Z,9.67
2018-12-06T16:28:54.276Z,12.40
2018-12-06T16:31:22.417Z,8.83
2018-12-06T16:33:50.566Z,8.30
2018-12-06T16:36:18.702Z,9.13
2018-12-06T16:38:46.859Z,14.20
2018-12-06T16:41:15.090Z,11.20
2018-12-06T16:43:43.172Z,14.73
2018-12-06T16:46:11.417Z,13.87
2018-12-06T16:48:40.027Z,10.17
2018-12-06T16:51:08.191Z,13.80
2018-12-06T16:53:36.341Z,13.97
2018-12-06T16:56:04.500Z,9.30
2018-12-06T16:58:32.628Z,10.20
2018-12-06T17:01:00.725Z,13.97
2018-12-06T17:03:28.824Z,11.73
2018-12-06T17:05:57.040Z,16.90
2018-12-06T17:08:25.133Z,13.10
2018-12-06T17:10:53.340Z,16.87
2018-12-06T17:13:21.499Z,18.23
2018-12-06T17:15:49.796Z,12.57
2018-12-06T17:18:17.934Z,21.10
2018-12-06T17:20:46.138Z,23.13
2018-12-06T17:23:14.255Z,16.03
2018-12-06T17:25:42.468Z,22.40
2018-12-06T17:28:10.664Z,15.67
2018-12-06T17:30:38.818Z,19.77
2018-12-06T17:33:07.138Z,14.70
2018-12-06T17:35:35.217Z,19.57
2018-12-06T17:38:03.406Z,14.40
2018-12-06T17:40:31.584Z,15.87
2018-12-06T17:42:59.808Z,18.33
2018-12-06T17:45:27.997Z,11.63
2018-12-06T17:47:56.143Z,12.00
2018-12-06T17:50:24.388Z,13.43
2018-12-06T17:52:52.585Z,12.27
2018-12-06T17:55:20.805Z,10.23
2018-12-06T17:57:49.013Z,9.67
2018-12-06T18:00:17.151Z,6.73
2018-12-06T18:02:45.305Z,10.10
2018-12-06T18:05:13.501Z,9.47
2018-12-06T18:07:41.735Z,8.03
2018-12-06T18:13:09.741Z,10.00
2018-12-06T18:15:38.130Z,9.83
2018-12-06T18:18:06.278Z,7.63
2018-12-06T18:20:35.274Z,12.60
2018-12-06T18:23:03.406Z,8.50
2018-12-06T18:25:31.553Z,8.27
2018-12-06T18:27:59.717Z,9.83
2018-12-06T18:30:27.800Z,11.50
2018-12-06T18:32:56.050Z,10.63
2018-12-06T18:35:24.269Z,5.30
2018-12-06T18:37:52.407Z,7.07
2018-12-06T18:40:20.550Z,8.83
2018-12-06T18:42:48.708Z,12.20
2018-12-06T18:45:16.849Z,7.33
2018-12-06T18:47:44.974Z,5.80
2018-12-06T18:50:13.101Z,7.10
2018-12-06T18:52:41.325Z,5.60
2018-12-06T18:55:09.668Z,7.33
2018-12-06T18:57:37.803Z,13.47
2018-12-06T19:00:07.892Z,8.40
2018-12-06T19:02:36.168Z,5.90
2018-12-06T19:05:04.556Z,4.80
2018-12-06T19:07:32.781Z,8.77
2018-12-06T19:10:00.968Z,8.80
2018-12-06T19:12:29.116Z,7.17
2018-12-06T19:14:58.076Z,6.33
2018-12-06T19:17:27.024Z,8.37
2018-12-06T19:19:57.003Z,6.63
2018-12-06T19:22:26.173Z,6.57
2018-12-06T19:24:55.145Z,10.50
2018-12-06T19:27:23.425Z,10.30
2018-12-06T19:29:51.602Z,6.97
2018-12-06T19:32:19.777Z,7.10
2018-12-06T19:34:48.151Z,10.10
2018-12-06T19:37:16.298Z,7.23
2018-12-06T19:39:56.965Z,6.83
2018-12-06T19:42:38.532Z,10.63
2018-12-06T19:45:06.429Z,8.20
2018-12-06T19:50:27.392Z,6.60
2018-12-06T19:52:55.629Z,6.73
2018-12-06T19:55:23.847Z,9.30
2018-12-06T19:57:52.008Z,9.17
2018-12-06T20:00:20.307Z,7.37
2018-12-06T20:02:48.457Z,16.67
2018-12-06T20:05:16.791Z,7.30
2018-12-06T20:07:44.953Z,7.57
2018-12-06T20:10:15.225Z,9.43
2018-12-06T20:12:43.423Z,7.87
2018-12-06T20:15:11.785Z,9.20
2018-12-06T20:17:39.982Z,6.23
2018-12-06T20:20:08.339Z,9.93
2018-12-06T20:22:36.577Z,8.57
2018-12-06T20:25:10.998Z,11.43
2018-12-06T20:27:45.936Z,6.17
2018-12-06T20:30:15.619Z,11.83
2018-12-06T20:32:47.874Z,10.53
2018-12-06T20:35:23.072Z,10.43
2018-12-06T20:38:00.913Z,12.63
2018-12-06T20:40:35.180Z,16.47
2018-12-06T20:43:09.701Z,18.23
2018-12-06T20:45:41.225Z,13.40
2018-12-06T20:48:27.580Z,11.60
2018-12-06T20:51:01.528Z,13.00
2018-12-06T20:53:29.626Z,15.30
2018-12-06T20:56:04.982Z,11.63
2018-12-06T20:58:39.190Z,10.57
2018-12-06T21:01:23.568Z,12.17
2018-12-06T21:04:00.343Z,12.17
2018-12-06T21:06:28.464Z,12.70
2018-12-06T21:08:56.598Z,11.00
2018-12-06T21:11:24.790Z,11.43
2018-12-06T21:13:58.692Z,14.43
2018-12-06T21:16:33.237Z,11.20
2018-12-06T21:19:05.001Z,8.80
2018-12-06T21:21:33.178Z,9.33
2018-12-06T21:24:01.402Z,9.97
2018-12-06T21:29:34.417Z,8.50
2018-12-06T21:32:02.677Z,8.60
2018-12-06T21:34:30.908Z,6.50
2018-12-06T21:36:59.246Z,7.70
2018-12-06T21:39:27.375Z,9.40
2018-12-06T21:42:01.735Z,7.53
2018-12-06T21:44:52.788Z,7.53
2018-12-06T21:47:27.316Z,7.03
2018-12-06T21:50:01.481Z,10.73
2018-12-06T21:52:31.345Z,6.43
2018-12-06T21:55:05.841Z,7.70
2018-12-06T21:57:34.016Z,6.60
2018-12-06T22:00:02.245Z,8.87
